sensor_id;sensor_type;location;lat;lon;timestamp;pressure;altitude;pressure_sealevel;temperature;humidity
11971;BME280;6045;42.682;23.294;2022-10-17T00:00:45;95909.97;;;11.10;67.98
11971;BME280;6045;42.682;23.294;2022-10-17T00:03:12;95912.22;;;11.07;68.01
11971;BME280;6045;42.682;23.294;2022-10-17T00:05:39;95918.56;;;10.99;68.37
11971;BME280;6045;42.682;23.294;2022-10-17T00:08:06;95900.47;;;11.01;68.20
11971;BME280;6045;42.682;23.294;2022-10-17T00:10:33;95905.59;;;11.02;68.63
11971;BME280;6045;42.682;23.294;2022-10-17T00:13:00;95917.38;;;11.08;68.55
11971;BME280;6045;42.682;23.294;2022-10-17T00:15:28;95912.41;;;11.12;68.54
11971;BME280;6045;42.682;23.294;2022-10-17T00:17:55;95917.78;;;11.12;68.52
11971;BME280;6045;42.682;23.294;2022-10-17T00:20:22;95911.63;;;11.18;67.98
11971;BME280;6045;42.682;23.294;2022-10-17T00:22:49;95914.53;;;11.23;67.75
11971;BME280;6045;42.682;23.294;2022-10-17T00:25:17;95919.50;;;11.26;68.15
11971;BME280;6045;42.682;23.294;2022-10-17T00:27:44;95916.38;;;11.29;67.61
11971;BME280;6045;42.682;23.294;2022-10-17T00:30:12;95918.66;;;11.32;67.44
11971;BME280;6045;42.682;23.294;2022-10-17T00:32:41;95912.09;;;11.28;67.25
11971;BME280;6045;42.682;23.294;2022-10-17T00:35:08;95917.84;;;11.25;67.96
11971;BME280;6045;42.682;23.294;2022-10-17T00:37:35;95916.97;;;11.18;68.73
11971;BME280;6045;42.682;23.294;2022-10-17T00:40:03;95916.75;;;11.13;68.20
11971;BME280;6045;42.682;23.294;2022-10-17T00:42:31;95925.19;;;11.10;68.07
11971;BME280;6045;42.682;23.294;2022-10-17T00:45:06;95928.47;;;11.05;68.26
11971;BME280;6045;42.682;23.294;2022-10-17T00:47:34;95933.19;;;11.03;68.41
11971;BME280;6045;42.682;23.294;2022-10-17T00:50:04;95932.13;;;10.97;68.77
11971;BME280;6045;42.682;23.294;2022-10-17T00:52:33;95923.47;;;10.89;69.73
11971;BME280;6045;42.682;23.294;2022-10-17T00:55:04;95932.91;;;10.78;69.99
11971;BME280;6045;42.682;23.294;2022-10-17T00:57:33;95926.47;;;10.66;70.72
11971;BME280;6045;42.682;23.294;2022-10-17T01:00:03;95928.28;;;10.59;70.28
11971;BME280;6045;42.682;23.294;2022-10-17T01:02:31;95933.19;;;10.62;70.39
11971;BME280;6045;42.682;23.294;2022-10-17T01:04:58;95927.47;;;10.65;70.32
11971;BME280;6045;42.682;23.294;2022-10-17T01:07:27;95930.13;;;10.65;69.80
11971;BME280;6045;42.682;23.294;2022-10-17T01:09:55;95928.50;;;10.64;70.11
11971;BME280;6045;42.682;23.294;2022-10-17T01:12:24;95934.25;;;10.61;69.87
11971;BME280;6045;42.682;23.294;2022-10-17T01:15:07;95923.31;;;10.56;69.93
11971;BME280;6045;42.682;23.294;2022-10-17T01:17:45;95923.47;;;10.48;69.96
11971;BME280;6045;42.682;23.294;2022-10-17T01:20:33;95924.91;;;10.51;69.77
11971;BME280;6045;42.682;23.294;2022-10-17T01:23:19;95921.66;;;10.55;69.77
11971;BME280;6045;42.682;23.294;2022-10-17T01:25:52;95920.44;;;10.58;69.77
11971;BME280;6045;42.682;23.294;2022-10-17T01:31:24;95917.34;;;10.54;69.70
11971;BME280;6045;42.682;23.294;2022-10-17T01:33:58;95924.75;;;10.52;69.92
11971;BME280;6045;42.682;23.294;2022-10-17T01:36:35;95918.94;;;10.49;70.23
11971;BME280;6045;42.682;23.294;2022-10-17T01:39:11;95919.34;;;10.46;70.34
11971;BME280;6045;42.682;23.294;2022-10-17T01:41:44;95928.78;;;10.42;70.04
11971;BME280;6045;42.682;23.294;2022-10-17T01:44:17;95926.91;;;10.36;70.28
11971;BME280;6045;42.682;23.294;2022-10-17T01:46:48;95932.41;;;10.34;70.49
11971;BME280;6045;42.682;23.294;2022-10-17T01:49:18;95933.47;;;10.33;70.79
11971;BME280;6045;42.682;23.294;2022-10-17T01:51:51;95940.84;;;10.31;70.88
11971;BME280;6045;42.682;23.294;2022-10-17T01:54:22;95940.00;;;10.30;71.09
11971;BME280;6045;42.682;23.294;2022-10-17T01:56:54;95934.44;;;10.25;71.65
11971;BME280;6045;42.682;23.294;2022-10-17T01:59:26;95934.56;;;10.17;71.98
11971;BME280;6045;42.682;23.294;2022-10-17T02:01:57;95943.16;;;10.13;71.74
11971;BME280;6045;42.682;23.294;2022-10-17T02:04:25;95934.16;;;10.14;71.74
11971;BME280;6045;42.682;23.294;2022-10-17T02:06:51;95936.19;;;10.12;71.62
11971;BME280;6045;42.682;23.294;2022-10-17T02:09:20;95933.88;;;10.09;72.24
11971;BME280;6045;42.682;23.294;2022-10-17T02:12:06;95939.22;;;10.09;71.86
11971;BME280;6045;42.682;23.294;2022-10-17T02:14:42;95937.69;;;10.00;71.37
11971;BME280;6045;42.682;23.294;2022-10-17T02:17:18;95942.59;;;9.96;71.43
11971;BME280;6045;42.682;23.294;2022-10-17T02:19:59;95950.59;;;9.96;71.58
11971;BME280;6045;42.682;23.294;2022-10-17T02:22:36;95948.19;;;10.01;70.94
11971;BME280;6045;42.682;23.294;2022-10-17T02:25:10;95951.06;;;10.00;70.85
11971;BME280;6045;42.682;23.294;2022-10-17T02:27:44;95943.44;;;9.97;71.01
11971;BME280;6045;42.682;23.294;2022-10-17T02:30:18;95951.63;;;9.95;71.03
11971;BME280;6045;42.682;23.294;2022-10-17T02:32:54;95952.84;;;9.93;71.36
11971;BME280;6045;42.682;23.294;2022-10-17T02:35:23;95962.69;;;9.92;71.13
11971;BME280;6045;42.682;23.294;2022-10-17T02:37:52;95962.69;;;9.92;71.20
11971;BME280;6045;42.682;23.294;2022-10-17T02:40:21;95958.19;;;9.93;71.30
11971;BME280;6045;42.682;23.294;2022-10-17T02:42:50;95962.28;;;9.89;71.15
11971;BME280;6045;42.682;23.294;2022-10-17T02:45:20;95966.53;;;9.83;70.85
11971;BME280;6045;42.682;23.294;2022-10-17T02:47:56;95965.06;;;9.81;71.23
11971;BME280;6045;42.682;23.294;2022-10-17T02:50:29;95970.97;;;9.76;71.43
11971;BME280;6045;42.682;23.294;2022-10-17T02:53:04;95975.06;;;9.72;71.37
11971;BME280;6045;42.682;23.294;2022-10-17T02:55:39;95976.00;;;9.64;71.02
11971;BME280;6045;42.682;23.294;2022-10-17T02:58:09;95975.53;;;9.61;70.90
11971;BME280;6045;42.682;23.294;2022-10-17T03:00:38;95980.88;;;9.61;71.63
11971;BME280;6045;42.682;23.294;2022-10-17T03:03:19;95977.59;;;9.59;71.53
11971;BME280;6045;42.682;23.294;2022-10-17T03:05:46;95982.75;;;9.60;71.61
11971;BME280;6045;42.682;23.294;2022-10-17T03:08:13;95990.56;;;9.62;71.64
11971;BME280;6045;42.682;23.294;2022-10-17T03:10:40;95985.78;;;9.57;71.26
11971;BME280;6045;42.682;23.294;2022-10-17T03:13:07;95994.00;;;9.56;71.42
11971;BME280;6045;42.682;23.294;2022-10-17T03:15:34;95986.16;;;9.54;71.77
11971;BME280;6045;42.682;23.294;2022-10-17T03:18:00;95990.75;;;9.60;72.04
11971;BME280;6045;42.682;23.294;2022-10-17T03:20:29;95996.16;;;9.67;71.38
11971;BME280;6045;42.682;23.294;2022-10-17T03:22:55;95991.44;;;9.69;71.09
11971;BME280;6045;42.682;23.294;2022-10-17T03:25:22;95992.28;;;9.70;70.99
11971;BME280;6045;42.682;23.294;2022-10-17T03:27:49;95987.56;;;9.72;70.63
11971;BME280;6045;42.682;23.294;2022-10-17T03:30:18;96002.31;;;9.68;71.84
11971;BME280;6045;42.682;23.294;2022-10-17T03:32:45;95989.56;;;9.63;71.35
11971;BME280;6045;42.682;23.294;2022-10-17T03:35:12;95987.06;;;9.61;71.27
11971;BME280;6045;42.682;23.294;2022-10-17T03:37:40;96001.44;;;9.60;71.50
11971;BME280;6045;42.682;23.294;2022-10-17T03:40:08;95991.19;;;9.64;70.99
11971;BME280;6045;42.682;23.294;2022-10-17T03:42:36;95996.53;;;9.64;70.82
11971;BME280;6045;42.682;23.294;2022-10-17T03:45:04;96002.91;;;9.63;70.88
11971;BME280;6045;42.682;23.294;2022-10-17T03:47:30;95999.78;;;9.59;71.20
11971;BME280;6045;42.682;23.294;2022-10-17T03:49:57;96005.47;;;9.56;71.13
11971;BME280;6045;42.682;23.294;2022-10-17T03:52:24;96004.00;;;9.54;71.20
11971;BME280;6045;42.682;23.294;2022-10-17T03:54:52;96007.91;;;9.51;71.24
11971;BME280;6045;42.682;23.294;2022-10-17T03:57:19;96004.97;;;9.46;70.81
11971;BME280;6045;42.682;23.294;2022-10-17T03:59:46;96012.31;;;9.44;70.61
11971;BME280;6045;42.682;23.294;2022-10-17T04:02:12;96008.09;;;9.50;75.73
11971;BME280;6045;42.682;23.294;2022-10-17T04:04:39;96006.63;;;10.60;93.64
11971;BME280;6045;42.682;23.294;2022-10-17T04:07:06;96009.44;;;10.86;83.86
11971;BME280;6045;42.682;23.294;2022-10-17T04:09:33;96015.16;;;11.17;76.03
11971;BME280;6045;42.682;23.294;2022-10-17T04:12:01;96016.94;;;11.44;71.72
11971;BME280;6045;42.682;23.294;2022-10-17T04:14:27;96009.19;;;11.69;69.64
11971;BME280;6045;42.682;23.294;2022-10-17T04:16:54;96012.78;;;12.09;71.10
11971;BME280;6045;42.682;23.294;2022-10-17T04:19:21;96010.22;;;12.99;79.38
11971;BME280;6045;42.682;23.294;2022-10-17T04:21:48;96019.25;;;13.37;73.02
11971;BME280;6045;42.682;23.294;2022-10-17T04:24:15;96015.03;;;13.48;67.93
11971;BME280;6045;42.682;23.294;2022-10-17T04:26:41;96016.03;;;13.60;65.50
11971;BME280;6045;42.682;23.294;2022-10-17T04:29:09;96018.63;;;13.80;67.56
11971;BME280;6045;42.682;23.294;2022-10-17T04:31:36;96016.97;;;14.10;71.25
11971;BME280;6045;42.682;23.294;2022-10-17T04:34:03;96019.13;;;13.95;57.18
11971;BME280;6045;42.682;23.294;2022-10-17T04:36:30;96011.72;;;13.52;58.95
11971;BME280;6045;42.682;23.294;2022-10-17T04:38:59;96018.09;;;13.07;60.08
11971;BME280;6045;42.682;23.294;2022-10-17T04:41:27;96026.78;;;12.70;60.16
11971;BME280;6045;42.682;23.294;2022-10-17T04:43:54;96024.56;;;12.41;60.14
11971;BME280;6045;42.682;23.294;2022-10-17T04:46:22;96026.81;;;12.17;61.41
11971;BME280;6045;42.682;23.294;2022-10-17T04:48:49;96032.75;;;11.87;62.18
11971;BME280;6045;42.682;23.294;2022-10-17T04:51:18;96035.06;;;11.49;62.93
11971;BME280;6045;42.682;23.294;2022-10-17T04:53:45;96036.41;;;11.25;64.48
11971;BME280;6045;42.682;23.294;2022-10-17T04:56:15;96038.88;;;11.27;63.99
11971;BME280;6045;42.682;23.294;2022-10-17T04:58:43;96040.94;;;11.25;64.53
11971;BME280;6045;42.682;23.294;2022-10-17T05:01:12;96035.31;;;11.13;64.30
11971;BME280;6045;42.682;23.294;2022-10-17T05:03:41;96036.75;;;11.09;65.19
11971;BME280;6045;42.682;23.294;2022-10-17T05:06:09;96046.53;;;10.95;65.06
11971;BME280;6045;42.682;23.294;2022-10-17T05:08:36;96043.16;;;10.80;65.27
11971;BME280;6045;42.682;23.294;2022-10-17T05:11:04;96051.78;;;10.76;66.19
11971;BME280;6045;42.682;23.294;2022-10-17T05:13:31;96044.47;;;11.32;65.53
11971;BME280;6045;42.682;23.294;2022-10-17T05:15:58;96050.72;;;12.06;63.32
11971;BME280;6045;42.682;23.294;2022-10-17T05:18:26;96051.97;;;12.56;60.92
11971;BME280;6045;42.682;23.294;2022-10-17T05:20:54;96055.25;;;13.10;59.45
11971;BME280;6045;42.682;23.294;2022-10-17T05:23:21;96054.66;;;13.59;57.62
11971;BME280;6045;42.682;23.294;2022-10-17T05:25:53;96059.78;;;14.11;55.92
11971;BME280;6045;42.682;23.294;2022-10-17T05:28:20;96063.81;;;14.58;54.83
11971;BME280;6045;42.682;23.294;2022-10-17T05:30:47;96061.59;;;14.98;53.34
11971;BME280;6045;42.682;23.294;2022-10-17T05:33:13;96063.34;;;15.53;52.19
11971;BME280;6045;42.682;23.294;2022-10-17T05:35:40;96065.75;;;16.09;50.68
11971;BME280;6045;42.682;23.294;2022-10-17T05:38:08;96069.38;;;16.74;49.29
11971;BME280;6045;42.682;23.294;2022-10-17T05:40:35;96073.78;;;17.33;47.74
11971;BME280;6045;42.682;23.294;2022-10-17T05:43:04;96062.78;;;17.74;46.71
11971;BME280;6045;42.682;23.294;2022-10-17T05:45:30;96063.94;;;18.18;45.29
11971;BME280;6045;42.682;23.294;2022-10-17T05:47:57;96072.88;;;18.75;43.61
11971;BME280;6045;42.682;23.294;2022-10-17T05:50:24;96075.97;;;19.34;41.86
11971;BME280;6045;42.682;23.294;2022-10-17T05:52:54;96071.56;;;19.83;41.36
11971;BME280;6045;42.682;23.294;2022-10-17T05:55:23;96082.25;;;20.32;40.01
11971;BME280;6045;42.682;23.294;2022-10-17T05:57:49;96081.00;;;20.45;39.43
11971;BME280;6045;42.682;23.294;2022-10-17T06:00:17;96089.16;;;20.72;40.01
11971;BME280;6045;42.682;23.294;2022-10-17T06:02:44;96091.78;;;20.88;39.87
11971;BME280;6045;42.682;23.294;2022-10-17T06:05:12;96094.00;;;20.96;39.71
11971;BME280;6045;42.682;23.294;2022-10-17T06:07:39;96093.53;;;21.31;38.46
11971;BME280;6045;42.682;23.294;2022-10-17T06:10:07;96091.56;;;21.63;37.97
11971;BME280;6045;42.682;23.294;2022-10-17T06:12:35;96095.44;;;21.72;37.45
11971;BME280;6045;42.682;23.294;2022-10-17T06:15:02;96096.16;;;22.05;36.41
11971;BME280;6045;42.682;23.294;2022-10-17T06:17:29;96090.81;;;22.25;35.94
11971;BME280;6045;42.682;23.294;2022-10-17T06:19:56;96105.72;;;22.07;35.66
11971;BME280;6045;42.682;23.294;2022-10-17T06:22:23;96104.72;;;22.28;36.18
11971;BME280;6045;42.682;23.294;2022-10-17T06:24:50;96106.69;;;22.43;35.91
11971;BME280;6045;42.682;23.294;2022-10-17T06:27:18;96107.66;;;22.07;35.63
11971;BME280;6045;42.682;23.294;2022-10-17T06:29:46;96112.13;;;22.38;35.81
11971;BME280;6045;42.682;23.294;2022-10-17T06:32:15;96114.84;;;22.38;35.75
11971;BME280;6045;42.682;23.294;2022-10-17T06:34:42;96118.19;;;21.98;35.96
11971;BME280;6045;42.682;23.294;2022-10-17T06:37:08;96125.34;;;22.14;36.16
11971;BME280;6045;42.682;23.294;2022-10-17T06:39:35;96122.84;;;22.03;36.74
11971;BME280;6045;42.682;23.294;2022-10-17T06:42:02;96125.59;;;21.66;36.52
11971;BME280;6045;42.682;23.294;2022-10-17T06:44:29;96129.22;;;21.40;36.29
11971;BME280;6045;42.682;23.294;2022-10-17T06:46:58;96127.50;;;21.65;42.10
11971;BME280;6045;42.682;23.294;2022-10-17T06:49:26;96130.44;;;21.96;40.15
11971;BME280;6045;42.682;23.294;2022-10-17T06:51:53;96126.91;;;22.57;35.41
11971;BME280;6045;42.682;23.294;2022-10-17T06:54:20;96123.56;;;22.35;35.23
11971;BME280;6045;42.682;23.294;2022-10-17T06:56:47;96130.59;;;22.26;35.54
11971;BME280;6045;42.682;23.294;2022-10-17T06:59:14;96129.94;;;21.62;35.67
11971;BME280;6045;42.682;23.294;2022-10-17T07:01:41;96126.63;;;20.96;37.60
11971;BME280;6045;42.682;23.294;2022-10-17T07:04:09;96120.16;;;21.66;37.26
11971;BME280;6045;42.682;23.294;2022-10-17T07:06:37;96124.94;;;22.37;35.38
11971;BME280;6045;42.682;23.294;2022-10-17T07:09:04;96131.19;;;22.38;34.71
11971;BME280;6045;42.682;23.294;2022-10-17T07:11:32;96124.56;;;22.14;35.41
11971;BME280;6045;42.682;23.294;2022-10-17T07:13:59;96130.81;;;22.76;33.91
11971;BME280;6045;42.682;23.294;2022-10-17T07:16:26;96124.84;;;22.94;35.31
11971;BME280;6045;42.682;23.294;2022-10-17T07:18:54;96122.00;;;22.59;35.19
11971;BME280;6045;42.682;23.294;2022-10-17T07:21:23;96121.16;;;22.48;35.54
11971;BME280;6045;42.682;23.294;2022-10-17T07:23:50;96121.03;;;23.21;35.17
11971;BME280;6045;42.682;23.294;2022-10-17T07:26:18;96121.09;;;23.41;34.47
11971;BME280;6045;42.682;23.294;2022-10-17T07:28:46;96131.75;;;23.57;33.91
11971;BME280;6045;42.682;23.294;2022-10-17T07:31:14;96132.25;;;23.85;33.44
11971;BME280;6045;42.682;23.294;2022-10-17T07:33:42;96134.72;;;23.56;36.39
11971;BME280;6045;42.682;23.294;2022-10-17T07:36:10;96136.63;;;23.65;35.01
11971;BME280;6045;42.682;23.294;2022-10-17T07:38:39;96135.53;;;23.41;34.10
11971;BME280;6045;42.682;23.294;2022-10-17T07:41:08;96134.19;;;23.54;33.82
11971;BME280;6045;42.682;23.294;2022-10-17T07:43:37;96135.50;;;23.87;34.73
11971;BME280;6045;42.682;23.294;2022-10-17T07:46:05;96141.19;;;24.20;34.38
11971;BME280;6045;42.682;23.294;2022-10-17T07:48:32;96135.72;;;24.25;34.09
11971;BME280;6045;42.682;23.294;2022-10-17T07:51:01;96139.91;;;24.67;34.62
11971;BME280;6045;42.682;23.294;2022-10-17T07:53:28;96137.00;;;24.43;32.88
11971;BME280;6045;42.682;23.294;2022-10-17T07:55:56;96134.13;;;23.84;33.16
11971;BME280;6045;42.682;23.294;2022-10-17T07:58:23;96138.81;;;23.68;34.78
11971;BME280;6045;42.682;23.294;2022-10-17T08:00:50;96135.78;;;23.85;35.08
11971;BME280;6045;42.682;23.294;2022-10-17T08:03:16;96137.41;;;23.91;34.86
11971;BME280;6045;42.682;23.294;2022-10-17T08:05:43;96137.69;;;24.79;31.23
11971;BME280;6045;42.682;23.294;2022-10-17T08:08:10;96133.56;;;25.25;31.23
11971;BME280;6045;42.682;23.294;2022-10-17T08:10:37;96130.81;;;25.64;30.41
11971;BME280;6045;42.682;23.294;2022-10-17T08:13:05;96124.72;;;26.01;29.24
11971;BME280;6045;42.682;23.294;2022-10-17T08:15:32;96132.41;;;25.70;29.60
11971;BME280;6045;42.682;23.294;2022-10-17T08:17:59;96126.84;;;25.46;31.27
11971;BME280;6045;42.682;23.294;2022-10-17T08:20:25;96120.31;;;25.03;31.56
11971;BME280;6045;42.682;23.294;2022-10-17T08:22:53;96128.13;;;24.71;31.24
11971;BME280;6045;42.682;23.294;2022-10-17T08:25:20;96122.75;;;25.10;31.80
11971;BME280;6045;42.682;23.294;2022-10-17T08:27:48;96114.81;;;24.49;32.11
11971;BME280;6045;42.682;23.294;2022-10-17T08:30:16;96113.53;;;24.96;30.81
11971;BME280;6045;42.682;23.294;2022-10-17T08:32:43;96112.97;;;24.99;31.21
11971;BME280;6045;42.682;23.294;2022-10-17T08:35:10;96120.44;;;25.61;30.89
11971;BME280;6045;42.682;23.294;2022-10-17T08:37:39;96110.16;;;25.09;31.03
11971;BME280;6045;42.682;23.294;2022-10-17T08:40:08;96119.41;;;24.64;31.55
11971;BME280;6045;42.682;23.294;2022-10-17T08:42:51;96119.56;;;24.34;32.04
11971;BME280;6045;42.682;23.294;2022-10-17T08:45:26;96110.84;;;24.22;32.60
11971;BME280;6045;42.682;23.294;2022-10-17T08:47:58;96121.78;;;24.27;31.33
11971;BME280;6045;42.682;23.294;2022-10-17T08:50:31;96115.06;;;24.63;36.91
11971;BME280;6045;42.682;23.294;2022-10-17T08:53:05;96122.50;;;24.47;37.33
11971;BME280;6045;42.682;23.294;2022-10-17T08:55:36;96122.59;;;24.32;36.76
11971;BME280;6045;42.682;23.294;2022-10-17T08:58:11;96119.84;;;24.32;34.14
11971;BME280;6045;42.682;23.294;2022-10-17T09:00:42;96123.66;;;24.36;33.37
11971;BME280;6045;42.682;23.294;2022-10-17T09:03:27;96123.09;;;25.32;31.19
11971;BME280;6045;42.682;23.294;2022-10-17T09:06:08;96113.47;;;26.02;31.01
11971;BME280;6045;42.682;23.294;2022-10-17T09:08:44;96114.97;;;26.42;30.21
11971;BME280;6045;42.682;23.294;2022-10-17T09:11:21;96117.88;;;26.93;28.29
11971;BME280;6045;42.682;23.294;2022-10-17T09:13:59;96119.00;;;26.92;28.62
11971;BME280;6045;42.682;23.294;2022-10-17T09:16:41;96112.22;;;27.22;27.14
11971;BME280;6045;42.682;23.294;2022-10-17T09:19:16;96108.78;;;27.67;26.06
11971;BME280;6045;42.682;23.294;2022-10-17T09:21:49;96115.88;;;27.68;24.68
11971;BME280;6045;42.682;23.294;2022-10-17T09:24:22;96118.59;;;28.19;25.54
11971;BME280;6045;42.682;23.294;2022-10-17T09:26:51;96117.88;;;27.81;26.92
11971;BME280;6045;42.682;23.294;2022-10-17T09:29:22;96117.03;;;28.26;25.29
11971;BME280;6045;42.682;23.294;2022-10-17T09:31:56;96115.94;;;28.55;24.63
11971;BME280;6045;42.682;23.294;2022-10-17T09:34:25;96120.75;;;28.63;25.80
11971;BME280;6045;42.682;23.294;2022-10-17T09:36:53;96116.38;;;28.62;25.19
11971;BME280;6045;42.682;23.294;2022-10-17T09:39:23;96106.66;;;28.64;24.85
11971;BME280;6045;42.682;23.294;2022-10-17T09:41:53;96106.88;;;29.17;26.00
11971;BME280;6045;42.682;23.294;2022-10-17T09:44:22;96105.63;;;28.46;25.15
11971;BME280;6045;42.682;23.294;2022-10-17T09:47:01;96105.84;;;27.45;27.94
11971;BME280;6045;42.682;23.294;2022-10-17T09:49:32;96105.72;;;27.18;27.92
11971;BME280;6045;42.682;23.294;2022-10-17T09:52:00;96107.69;;;27.31;29.04
11971;BME280;6045;42.682;23.294;2022-10-17T09:54:35;96096.22;;;27.93;25.77
11971;BME280;6045;42.682;23.294;2022-10-17T09:57:07;96095.25;;;28.03;24.52
11971;BME280;6045;42.682;23.294;2022-10-17T09:59:35;96100.44;;;28.31;25.84
11971;BME280;6045;42.682;23.294;2022-10-17T10:02:14;96096.47;;;28.65;24.72
11971;BME280;6045;42.682;23.294;2022-10-17T10:04:51;96103.56;;;28.93;24.49
11971;BME280;6045;42.682;23.294;2022-10-17T10:07:18;96087.56;;;29.31;23.38
11971;BME280;6045;42.682;23.294;2022-10-17T10:09:46;96091.81;;;29.01;25.01
11971;BME280;6045;42.682;23.294;2022-10-17T10:12:17;96084.78;;;29.08;24.42
11971;BME280;6045;42.682;23.294;2022-10-17T10:14:45;96087.19;;;29.68;23.25
11971;BME280;6045;42.682;23.294;2022-10-17T10:17:33;96076.59;;;30.14;23.86
11971;BME280;6045;42.682;23.294;2022-10-17T10:20:02;96083.75;;;29.85;22.58
11971;BME280;6045;42.682;23.294;2022-10-17T10:22:29;96083.63;;;29.45;23.46
11971;BME280;6045;42.682;23.294;2022-10-17T10:25:07;96070.47;;;29.64;23.61
11971;BME280;6045;42.682;23.294;2022-10-17T10:27:34;96073.72;;;29.89;20.71
11971;BME280;6045;42.682;23.294;2022-10-17T10:30:03;96064.25;;;30.12;21.75
11971;BME280;6045;42.682;23.294;2022-10-17T10:32:33;96070.72;;;29.76;21.66
11971;BME280;6045;42.682;23.294;2022-10-17T10:35:06;96066.53;;;30.10;21.11
11971;BME280;6045;42.682;23.294;2022-10-17T10:37:38;96060.88;;;30.15;20.86
11971;BME280;6045;42.682;23.294;2022-10-17T10:40:14;96048.25;;;29.92;20.30
11971;BME280;6045;42.682;23.294;2022-10-17T10:42:45;96052.94;;;30.22;20.64
11971;BME280;6045;42.682;23.294;2022-10-17T10:45:15;96055.94;;;30.03;20.76
11971;BME280;6045;42.682;23.294;2022-10-17T10:47:51;96054.41;;;29.89;23.97
11971;BME280;6045;42.682;23.294;2022-10-17T10:50:26;96045.72;;;30.04;20.79
11971;BME280;6045;42.682;23.294;2022-10-17T10:53:09;96045.31;;;30.19;19.21
11971;BME280;6045;42.682;23.294;2022-10-17T10:55:44;96043.47;;;30.54;19.94
11971;BME280;6045;42.682;23.294;2022-10-17T10:58:23;96040.81;;;31.14;20.58
11971;BME280;6045;42.682;23.294;2022-10-17T11:00:53;96039.66;;;31.40;18.94
11971;BME280;6045;42.682;23.294;2022-10-17T11:03:25;96035.47;;;31.08;19.82
11971;BME280;6045;42.682;23.294;2022-10-17T11:05:59;96037.38;;;30.91;18.96
11971;BME280;6045;42.682;23.294;2022-10-17T11:08:34;96035.44;;;31.26;18.93
11971;BME280;6045;42.682;23.294;2022-10-17T11:11:08;96030.72;;;31.00;18.62
11971;BME280;6045;42.682;23.294;2022-10-17T11:13:45;96033.13;;;30.68;19.34
11971;BME280;6045;42.682;23.294;2022-10-17T11:16:27;96027.81;;;31.23;19.76
11971;BME280;6045;42.682;23.294;2022-10-17T11:19:06;96031.19;;;31.28;20.34
11971;BME280;6045;42.682;23.294;2022-10-17T11:21:42;96030.53;;;31.74;18.24
11971;BME280;6045;42.682;23.294;2022-10-17T11:24:18;96026.66;;;31.58;18.15
11971;BME280;6045;42.682;23.294;2022-10-17T11:26:53;96022.41;;;31.52;17.70
11971;BME280;6045;42.682;23.294;2022-10-17T11:29:25;96020.97;;;31.63;18.17
11971;BME280;6045;42.682;23.294;2022-10-17T11:31:55;96024.94;;;31.83;17.49
11971;BME280;6045;42.682;23.294;2022-10-17T11:34:27;96015.94;;;32.40;17.32
11971;BME280;6045;42.682;23.294;2022-10-17T11:36:58;96025.25;;;32.36;17.83
11971;BME280;6045;42.682;23.294;2022-10-17T11:39:32;96023.56;;;32.43;17.26
11971;BME280;6045;42.682;23.294;2022-10-17T11:42:05;96016.13;;;32.35;16.88
11971;BME280;6045;42.682;23.294;2022-10-17T11:44:34;96015.28;;;32.73;17.84
11971;BME280;6045;42.682;23.294;2022-10-17T11:47:05;96011.22;;;32.91;17.33
11971;BME280;6045;42.682;23.294;2022-10-17T11:49:37;96015.28;;;32.73;16.94
11971;BME280;6045;42.682;23.294;2022-10-17T11:52:12;96015.09;;;32.19;17.43
11971;BME280;6045;42.682;23.294;2022-10-17T11:54:44;96009.06;;;32.17;18.18
11971;BME280;6045;42.682;23.294;2022-10-17T11:57:39;95999.34;;;32.90;17.27
11971;BME280;6045;42.682;23.294;2022-10-17T12:00:20;96005.47;;;32.55;18.05
11971;BME280;6045;42.682;23.294;2022-10-17T12:02:54;95994.81;;;32.86;17.09
11971;BME280;6045;42.682;23.294;2022-10-17T12:05:30;95998.75;;;32.85;16.51
11971;BME280;6045;42.682;23.294;2022-10-17T12:08:02;95996.16;;;33.00;17.30
11971;BME280;6045;42.682;23.294;2022-10-17T12:10:39;95996.34;;;32.54;16.89
11971;BME280;6045;42.682;23.294;2022-10-17T12:19:28;95994.09;;;31.72;16.65
11971;BME280;6045;42.682;23.294;2022-10-17T12:22:02;95996.88;;;31.55;17.81
11971;BME280;6045;42.682;23.294;2022-10-17T12:24:38;95988.56;;;31.72;16.86
11971;BME280;6045;42.682;23.294;2022-10-17T12:27:32;95983.06;;;31.55;16.68
11971;BME280;6045;42.682;23.294;2022-10-17T12:30:02;95995.47;;;31.23;17.89
11971;BME280;6045;42.682;23.294;2022-10-17T12:32:30;95982.69;;;31.73;17.40
11971;BME280;6045;42.682;23.294;2022-10-17T12:34:57;95983.91;;;31.93;16.60
11971;BME280;6045;42.682;23.294;2022-10-17T12:38:00;95987.22;;;32.24;16.68
11971;BME280;6045;42.682;23.294;2022-10-17T12:40:49;95985.28;;;32.54;15.98
11971;BME280;6045;42.682;23.294;2022-10-17T12:46:46;95984.47;;;32.74;15.72
11971;BME280;6045;42.682;23.294;2022-10-17T12:49:22;95974.16;;;31.87;16.87
11971;BME280;6045;42.682;23.294;2022-10-17T12:52:24;95983.47;;;32.20;17.17
11971;BME280;6045;42.682;23.294;2022-10-17T12:55:04;95983.94;;;32.22;16.87
11971;BME280;6045;42.682;23.294;2022-10-17T12:57:34;95983.56;;;32.32;17.27
11971;BME280;6045;42.682;23.294;2022-10-17T13:00:13;95981.97;;;32.31;18.28
11971;BME280;6045;42.682;23.294;2022-10-17T13:02:40;95982.31;;;31.84;17.33
11971;BME280;6045;42.682;23.294;2022-10-17T13:05:14;95970.78;;;31.73;17.59
11971;BME280;6045;42.682;23.294;2022-10-17T13:07:43;95974.59;;;31.60;17.47
11971;BME280;6045;42.682;23.294;2022-10-17T13:10:21;95969.16;;;29.70;17.80
11971;BME280;6045;42.682;23.294;2022-10-17T13:12:49;95970.13;;;30.05;18.67
11971;BME280;6045;42.682;23.294;2022-10-17T13:15:18;95970.56;;;30.46;17.91
11971;BME280;6045;42.682;23.294;2022-10-17T13:17:54;95970.63;;;30.15;17.95
11971;BME280;6045;42.682;23.294;2022-10-17T13:20:23;95970.13;;;29.74;19.77
11971;BME280;6045;42.682;23.294;2022-10-17T13:22:52;95977.16;;;28.33;19.37
11971;BME280;6045;42.682;23.294;2022-10-17T13:25:21;95976.91;;;28.71;19.65
11971;BME280;6045;42.682;23.294;2022-10-17T13:27:49;95975.75;;;27.95;20.36
11971;BME280;6045;42.682;23.294;2022-10-17T13:30:24;95972.38;;;27.71;20.02
11971;BME280;6045;42.682;23.294;2022-10-17T13:32:52;95965.91;;;26.33;21.09